createdAt,value
2018-09-02T00:02:07.871Z,21.40
2018-09-02T00:04:35.043Z,21.40
2018-09-02T00:07:02.230Z,21.40
2018-09-02T00:09:29.390Z,21.40
2018-09-02T00:11:56.917Z,21.40
2018-09-02T00:14:24.089Z,21.40
2018-09-02T00:16:51.282Z,21.40
2018-09-02T00:19:18.777Z,21.40
2018-09-02T00:21:45.909Z,21.40
2018-09-02T00:24:13.033Z,21.30
2018-09-02T00:26:40.163Z,21.30
2018-09-02T00:29:07.292Z,21.30
2018-09-02T00:31:34.423Z,21.30
2018-09-02T00:34:01.609Z,21.30
2018-09-02T00:36:28.681Z,21.30
2018-09-02T00:38:55.801Z,21.30
2018-09-02T00:41:22.947Z,21.30
2018-09-02T00:43:50.079Z,21.30
2018-09-02T00:46:17.211Z,21.30
2018-09-02T00:48:44.341Z,21.20
2018-09-02T00:51:11.490Z,21.20
2018-09-02T00:53:38.641Z,21.20
2018-09-02T00:56:05.785Z,21.20
2018-09-02T00:58:32.897Z,21.20
2018-09-02T01:01:00.028Z,21.20
2018-09-02T01:03:27.135Z,21.20
2018-09-02T01:05:54.256Z,21.20
2018-09-02T01:08:21.369Z,21.20
2018-09-02T01:10:49.021Z,21.20
2018-09-02T01:13:16.150Z,21.20
2018-09-02T01:15:43.427Z,21.10
2018-09-02T01:18:10.532Z,21.10
2018-09-02T01:20:37.814Z,21.10
2018-09-02T01:23:04.976Z,21.10
2018-09-02T01:25:38.121Z,21.10
2018-09-02T01:28:05.263Z,21.10
2018-09-02T01:30:32.752Z,21.10
2018-09-02T01:32:59.859Z,21.10
2018-09-02T01:35:32.537Z,21.10
2018-09-02T01:38:00.425Z,21.10
2018-09-02T01:40:27.537Z,21.10
2018-09-02T01:42:54.663Z,21.10
2018-09-02T01:45:21.815Z,21.10
2018-09-02T01:47:48.929Z,21.10
2018-09-02T01:50:16.419Z,21.10
2018-09-02T01:52:43.577Z,21.10
2018-09-02T01:55:10.681Z,21.10
2018-09-02T01:57:39.934Z,21.10
2018-09-02T02:00:07.083Z,21.10
2018-09-02T02:02:34.199Z,21.10
2018-09-02T02:05:01.326Z,21.00
2018-09-02T02:07:28.461Z,21.10
2018-09-02T02:09:55.609Z,21.00
2018-09-02T02:12:22.723Z,21.00
2018-09-02T02:14:49.864Z,21.00
2018-09-02T02:17:17.065Z,21.00
2018-09-02T02:19:44.218Z,21.00
2018-09-02T02:22:11.701Z,21.00
2018-09-02T02:24:38.822Z,21.00
2018-09-02T02:27:05.969Z,21.00
2018-09-02T02:29:33.135Z,20.90
2018-09-02T02:32:00.237Z,21.00
2018-09-02T02:34:27.365Z,20.90
2018-09-02T02:36:54.487Z,20.90
2018-09-02T02:39:21.621Z,20.90
2018-09-02T02:41:48.729Z,20.90
2018-09-02T02:44:16.198Z,20.90
2018-09-02T02:46:43.305Z,20.90
2018-09-02T02:49:10.426Z,20.90
2018-09-02T02:51:37.538Z,20.90
2018-09-02T02:54:04.849Z,20.90
2018-09-02T02:56:31.969Z,20.90
2018-09-02T02:58:59.073Z,20.80
2018-09-02T03:01:26.200Z,20.80
2018-09-02T03:03:53.309Z,20.80
2018-09-02T03:06:20.445Z,20.90
2018-09-02T03:08:47.568Z,20.80
2018-09-02T03:11:14.726Z,20.80
2018-09-02T03:13:42.057Z,20.80
2018-09-02T03:16:09.713Z,20.80
2018-09-02T03:18:36.954Z,20.80
2018-09-02T03:21:04.423Z,20.80
2018-09-02T03:23:31.612Z,20.80
2018-09-02T03:25:58.705Z,20.80
2018-09-02T03:28:25.818Z,20.80
2018-09-02T03:32:22.551Z,20.70
2018-09-02T03:34:49.673Z,20.80
2018-09-02T03:37:17.135Z,20.70
2018-09-02T03:39:45.160Z,20.70
2018-09-02T03:42:12.358Z,20.70
2018-09-02T03:44:39.499Z,20.70
2018-09-02T03:47:06.858Z,20.70
2018-09-02T03:49:34.024Z,20.70
2018-09-02T03:52:01.130Z,20.70
2018-09-02T03:54:28.272Z,20.70
2018-09-02T03:56:57.545Z,20.70
2018-09-02T03:59:26.582Z,20.70
2018-09-02T04:01:53.703Z,20.70
2018-09-02T04:04:21.161Z,20.70
2018-09-02T04:06:48.285Z,20.70
2018-09-02T04:09:15.409Z,20.60
2018-09-02T04:11:42.835Z,20.60
2018-09-02T04:14:09.933Z,20.60
2018-09-02T04:16:37.081Z,20.60
2018-09-02T04:19:04.275Z,20.60
2018-09-02T04:21:31.636Z,20.60
2018-09-02T04:23:58.722Z,20.60
2018-09-02T04:26:25.845Z,20.60
2018-09-02T04:28:53.039Z,20.60
2018-09-02T04:31:20.165Z,20.60
2018-09-02T04:33:47.325Z,20.60
2018-09-02T04:36:14.803Z,20.60
2018-09-02T04:38:41.926Z,20.60
2018-09-02T04:41:09.055Z,20.60
2018-09-02T04:43:36.184Z,20.60
2018-09-02T04:46:03.286Z,20.60
2018-09-02T04:48:30.404Z,20.60
2018-09-02T04:50:57.554Z,20.50
2018-09-02T04:53:24.682Z,20.50
2018-09-02T04:55:51.809Z,20.50
2018-09-02T04:58:18.927Z,20.50
2018-09-02T05:00:46.046Z,20.50
2018-09-02T05:03:13.239Z,20.50
2018-09-02T05:05:40.358Z,20.50
2018-09-02T05:08:07.822Z,20.50
2018-09-02T05:10:34.978Z,20.50
2018-09-02T05:13:02.084Z,20.50
2018-09-02T05:16:58.809Z,20.50
2018-09-02T05:19:26.062Z,20.50
2018-09-02T05:21:53.232Z,20.50
2018-09-02T05:24:20.382Z,20.50
2018-09-02T05:26:47.501Z,20.50
2018-09-02T05:29:14.621Z,20.50
2018-09-02T05:31:41.769Z,20.50
2018-09-02T05:34:08.865Z,20.50
2018-09-02T05:36:38.148Z,20.50
2018-09-02T05:39:07.333Z,20.50
2018-09-02T05:41:34.485Z,20.50
2018-09-02T05:44:01.706Z,20.50
2018-09-02T05:46:28.809Z,20.50
2018-09-02T05:49:03.224Z,20.50
2018-09-02T05:51:38.627Z,20.50
2018-09-02T05:54:12.331Z,20.60
2018-09-02T05:56:46.344Z,20.70
2018-09-02T05:59:14.574Z,20.80
2018-09-02T06:01:41.692Z,20.90
2018-09-02T06:04:09.125Z,21.00
2018-09-02T06:06:36.245Z,21.10
2018-09-02T06:09:05.422Z,21.10
2018-09-02T06:11:32.514Z,21.10
2018-09-02T06:13:59.613Z,21.10
2018-09-02T06:16:26.689Z,21.10
2018-09-02T06:18:53.797Z,21.10
2018-09-02T06:21:20.881Z,21.10
2018-09-02T06:23:47.986Z,21.10
2018-09-02T06:26:19.090Z,21.10
2018-09-02T06:28:46.186Z,21.10
2018-09-02T06:31:13.322Z,21.00
2018-09-02T06:33:40.410Z,21.00
2018-09-02T06:36:07.481Z,21.00
2018-09-02T06:38:34.566Z,21.00
2018-09-02T06:41:01.921Z,21.00
2018-09-02T06:43:29.009Z,21.10
2018-09-02T06:45:56.077Z,21.10
2018-09-02T06:48:23.198Z,21.10
2018-09-02T06:50:50.265Z,21.10
2018-09-02T06:53:17.345Z,21.10
2018-09-02T06:55:44.453Z,21.10
2018-09-02T06:58:12.213Z,21.10
2018-09-02T07:00:39.305Z,21.10
2018-09-02T07:03:06.421Z,21.20
2018-09-02T07:05:38.165Z,21.10
2018-09-02T07:08:05.447Z,21.10
2018-09-02T07:10:32.907Z,21.10
2018-09-02T07:12:59.978Z,21.10
2018-09-02T07:15:27.078Z,21.10
2018-09-02T07:17:54.174Z,21.20
2018-09-02T07:20:21.245Z,21.20
2018-09-02T07:22:48.510Z,21.20
2018-09-02T07:25:15.608Z,21.20
2018-09-02T07:27:42.685Z,21.20
2018-09-02T07:30:09.781Z,21.30
2018-09-02T07:32:36.867Z,21.30
2018-09-02T07:35:03.953Z,21.30
2018-09-02T07:37:31.025Z,21.30
2018-09-02T07:39:58.125Z,21.30
2018-09-02T07:42:25.201Z,21.30
2018-09-02T07:44:52.297Z,21.30
2018-09-02T07:47:19.397Z,21.30
2018-09-02T07:49:46.473Z,21.30
2018-09-02T07:52:13.565Z,21.30
2018-09-02T07:54:40.671Z,21.30
2018-09-02T07:57:07.749Z,21.30
2018-09-02T07:59:34.831Z,21.30
2018-09-02T08:02:02.089Z,21.40
2018-09-02T08:04:29.175Z,21.40
2018-09-02T08:06:56.361Z,21.40
2018-09-02T08:09:23.443Z,21.40
2018-09-02T08:11:50.538Z,21.40
2018-09-02T08:14:17.624Z,21.40
2018-09-02T08:16:44.701Z,21.40
2018-09-02T08:19:11.775Z,21.40
2018-09-02T08:21:38.852Z,21.50
2018-09-02T08:24:10.029Z,21.50
2018-09-02T08:26:37.308Z,21.50
2018-09-02T08:29:04.416Z,21.50
2018-09-02T08:31:31.557Z,21.60
2018-09-02T08:33:58.699Z,21.60
2018-09-02T08:36:25.809Z,21.60
2018-09-02T08:38:55.436Z,21.60
2018-09-02T08:41:22.554Z,21.60
2018-09-02T08:43:49.677Z,21.70
2018-09-02T08:46:16.850Z,21.70
2018-09-02T08:48:43.969Z,21.80
2018-09-02T08:51:11.233Z,21.80
2018-09-02T08:53:38.377Z,21.80
2018-09-02T08:56:05.594Z,21.90
2018-09-02T08:58:32.612Z,21.90
2018-09-02T09:00:59.717Z,21.90
2018-09-02T09:03:26.924Z,22.00
2018-09-02T09:05:54.041Z,22.00
2018-09-02T09:08:21.314Z,22.00
2018-09-02T09:10:48.372Z,22.10
2018-09-02T09:13:15.490Z,22.10
2018-09-02T09:15:42.620Z,22.10
2018-09-02T09:18:09.732Z,22.10
2018-09-02T09:20:36.857Z,22.10
2018-09-02T09:23:04.533Z,22.20
2018-09-02T09:25:31.626Z,22.20
2018-09-02T09:27:58.725Z,22.20
2018-09-02T09:30:25.831Z,22.20
2018-09-02T09:32:52.949Z,22.30
2018-09-02T09:35:20.086Z,22.30
2018-09-02T09:37:47.225Z,22.30
2018-09-02T09:40:14.327Z,22.30
2018-09-02T09:42:41.413Z,22.40
2018-09-02T09:45:08.541Z,22.40
2018-09-02T09:47:35.987Z,22.40
2018-09-02T09:50:03.125Z,22.40
2018-09-02T09:52:30.242Z,22.40
2018-09-02T09:54:57.357Z,22.50
2018-09-02T09:57:24.474Z,22.50
2018-09-02T09:59:51.614Z,22.50
2018-09-02T10:02:18.738Z,22.50
2018-09-02T10:04:47.915Z,22.60
2018-09-02T10:07:15.018Z,22.60
2018-09-02T10:09:42.174Z,22.60
2018-09-02T10:12:09.282Z,22.60
2018-09-02T10:14:36.410Z,22.70
2018-09-02T10:17:03.566Z,22.70
2018-09-02T10:19:30.685Z,22.70
2018-09-02T10:21:57.810Z,22.70
2018-09-02T10:24:24.941Z,22.70
2018-09-02T10:26:52.042Z,22.80
2018-09-02T10:29:19.129Z,22.80
2018-09-02T10:31:46.267Z,22.90
2018-09-02T10:34:13.342Z,22.90
2018-09-02T10:36:40.461Z,23.00
2018-09-02T10:39:08.067Z,23.00
2018-09-02T10:41:35.232Z,23.00
2018-09-02T10:44:02.266Z,23.00
2018-09-02T10:46:29.333Z,23.10
2018-09-02T10:48:56.457Z,23.10
2018-09-02T10:51:23.557Z,23.20
2018-09-02T10:53:50.637Z,23.20
2018-09-02T10:56:17.721Z,23.30
2018-09-02T10:58:44.878Z,23.30
2018-09-02T11:01:11.951Z,23.30
2018-09-02T11:03:39.059Z,23.40
2018-09-02T11:06:06.172Z,23.40
2018-09-02T11:08:33.326Z,23.40
2018-09-02T11:11:00.557Z,23.50
2018-09-02T11:13:27.659Z,23.50
2018-09-02T11:15:54.759Z,23.50
2018-09-02T11:18:22.065Z,23.50
2018-09-02T11:20:49.143Z,23.60
2018-09-02T11:23:16.227Z,23.60
2018-09-02T11:25:43.417Z,23.60
2018-09-02T11:28:10.509Z,23.70
2018-09-02T11:30:37.574Z,23.70
2018-09-02T11:33:04.685Z,23.80
2018-09-02T11:35:31.758Z,23.80
2018-09-02T11:37:58.839Z,23.80
2018-09-02T11:40:28.002Z,23.80
2018-09-02T11:42:55.090Z,23.90
2018-09-02T11:45:22.178Z,23.90
2018-09-02T11:47:49.258Z,23.90
2018-09-02T11:50:16.353Z,23.90
2018-09-02T11:52:43.543Z,24.00
2018-09-02T11:55:10.621Z,24.00
2018-09-02T11:57:37.765Z,24.10
2018-09-02T12:00:05.174Z,24.10
2018-09-02T12:02:32.633Z,24.20
2018-09-02T12:04:59.693Z,24.20
2018-09-02T12:07:26.773Z,24.30
2018-09-02T12:09:53.861Z,24.30
2018-09-02T12:12:20.942Z,24.40
2018-09-02T12:14:48.389Z,24.40
2018-09-02T12:17:15.458Z,24.40
2018-09-02T12:19:42.525Z,24.40
2018-09-02T12:22:09.649Z,24.40
2018-09-02T12:24:36.721Z,24.40
2018-09-02T12:27:03.814Z,24.40
2018-09-02T12:29:30.889Z,24.40
2018-09-02T12:31:57.969Z,24.50
2018-09-02T12:34:25.059Z,24.50
2018-09-02T12:36:52.141Z,24.50
2018-09-02T12:39:19.218Z,24.60
2018-09-02T12:41:46.315Z,24.60
2018-09-02T12:44:13.417Z,24.60
2018-09-02T12:46:40.513Z,24.60
2018-09-02T12:49:07.614Z,24.70
2018-09-02T12:51:34.733Z,24.70
2018-09-02T12:54:01.813Z,24.70
2018-09-02T12:56:28.921Z,24.70
2018-09-02T12:58:56.000Z,24.70
2018-09-02T13:01:23.145Z,24.70
2018-09-02T13:03:50.180Z,24.70
2018-09-02T13:06:17.254Z,24.80
2018-09-02T13:08:44.345Z,24.80
2018-09-02T13:11:11.425Z,24.80
2018-09-02T13:13:38.501Z,24.90
2018-09-02T13:16:05.593Z,24.80
2018-09-02T13:18:32.681Z,24.90
2018-09-02T13:20:59.784Z,24.90
2018-09-02T13:23:26.882Z,24.90
2018-09-02T13:25:54.021Z,24.90
2018-09-02T13:28:21.274Z,24.90
2018-09-02T13:30:48.382Z,24.90
2018-09-02T13:33:15.466Z,24.90
2018-09-02T13:35:42.553Z,25.00
2018-09-02T13:38:09.631Z,25.00
2018-09-02T13:40:36.732Z,25.00
2018-09-02T13:43:04.124Z,25.00
2018-09-02T13:45:31.158Z,25.00
2018-09-02T13:47:58.271Z,25.10
2018-09-02T13:50:25.348Z,25.10
2018-09-02T13:52:52.437Z,25.10
2018-09-02T13:55:19.585Z,25.10
2018-09-02T13:57:46.673Z,25.10
2018-09-02T14:00:13.769Z,25.20
2018-09-02T14:02:40.844Z,25.20
2018-09-02T14:05:08.129Z,25.20
2018-09-02T14:07:35.277Z,25.30
2018-09-02T14:10:02.359Z,25.30
2018-09-02T14:12:29.477Z,25.30
2018-09-02T14:14:56.625Z,25.30
2018-09-02T14:17:23.705Z,25.30
2018-09-02T14:19:50.929Z,25.30
2018-09-02T14:22:17.910Z,25.40
2018-09-02T14:24:44.989Z,25.40
2018-09-02T14:27:12.071Z,25.40
2018-09-02T14:29:39.198Z,25.40
2018-09-02T14:32:06.271Z,25.40
2018-09-02T14:34:33.354Z,25.50
2018-09-02T14:37:00.621Z,25.50
2018-09-02T14:39:27.689Z,25.50
2018-09-02T14:41:55.157Z,25.50
2018-09-02T14:44:22.279Z,25.50
2018-09-02T14:46:49.413Z,25.50
2018-09-02T14:49:16.502Z,25.40
2018-09-02T14:51:43.574Z,25.40
2018-09-02T14:54:10.671Z,25.40
2018-09-02T14:56:37.807Z,25.40
2018-09-02T14:59:04.931Z,25.40
2018-09-02T15:01:32.020Z,25.40
2018-09-02T15:03:59.093Z,25.40
2018-09-02T15:06:26.201Z,25.40
2018-09-02T15:08:53.561Z,25.40
2018-09-02T15:11:20.686Z,25.40
2018-09-02T15:13:47.758Z,25.50
2018-09-02T15:16:14.881Z,25.50
2018-09-02T15:18:42.013Z,25.50
2018-09-02T15:21:09.113Z,25.50
2018-09-02T15:23:36.206Z,25.50
2018-09-02T15:26:03.296Z,25.50
2018-09-02T15:28:30.717Z,25.50
2018-09-02T15:31:00.197Z,25.50
2018-09-02T15:33:27.744Z,25.50
2018-09-02T15:35:54.819Z,25.50
2018-09-02T15:38:21.932Z,25.50
2018-09-02T15:40:49.013Z,25.50
2018-09-02T15:43:16.102Z,25.50
2018-09-02T15:45:43.217Z,25.50
2018-09-02T15:48:10.320Z,25.50
2018-09-02T15:50:37.538Z,25.60
2018-09-02T15:53:05.038Z,25.60
2018-09-02T15:55:32.126Z,25.60
2018-09-02T15:57:59.213Z,25.60
2018-09-02T16:00:26.334Z,25.60
2018-09-02T16:02:53.440Z,25.60
2018-09-02T16:05:20.801Z,25.60
2018-09-02T16:07:47.905Z,25.60
2018-09-02T16:10:14.981Z,25.60
2018-09-02T16:12:42.106Z,25.60
2018-09-02T16:15:09.189Z,25.60
2018-09-02T16:17:36.288Z,25.60
2018-09-02T16:20:03.441Z,25.50
2018-09-02T16:22:30.519Z,25.50
2018-09-02T16:24:57.943Z,25.50
2018-09-02T16:27:25.018Z,25.50
2018-09-02T16:29:52.109Z,25.50
2018-09-02T16:32:19.205Z,25.50
2018-09-02T16:34:46.293Z,25.50
2018-09-02T16:37:13.413Z,25.50
2018-09-02T16:39:40.501Z,25.60
2018-09-02T16:42:07.593Z,25.50
2018-09-02T16:44:34.706Z,25.50
2018-09-02T16:47:01.901Z,25.50
2018-09-02T16:49:28.984Z,25.50
2018-09-02T16:51:56.066Z,25.50
2018-09-02T16:54:23.154Z,25.50
2018-09-02T16:56:50.247Z,25.50
2018-09-02T16:59:17.326Z,25.50
2018-09-02T17:01:46.506Z,25.50
2018-09-02T17:04:13.625Z,25.50
2018-09-02T17:06:40.709Z,25.50
2018-09-02T17:09:09.158Z,25.40
2018-09-02T17:11:36.601Z,25.40
2018-09-02T17:14:03.652Z,25.50
2018-09-02T17:16:30.826Z,25.40
2018-09-02T17:19:04.993Z,25.40
2018-09-02T17:21:32.075Z,25.40
2018-09-02T17:23:59.174Z,25.30
2018-09-02T17:26:26.253Z,25.30
2018-09-02T17:28:53.342Z,25.30
2018-09-02T17:31:20.445Z,25.30
2018-09-02T17:33:47.529Z,25.30
2018-09-02T17:36:14.617Z,25.30
2018-09-02T17:38:41.701Z,25.20
2018-09-02T17:41:08.797Z,25.20
2018-09-02T17:43:35.865Z,25.20
2018-09-02T17:46:02.954Z,25.10
2018-09-02T17:48:30.043Z,25.10
2018-09-02T17:50:57.133Z,25.10
2018-09-02T17:53:24.246Z,25.10
2018-09-02T17:55:51.405Z,25.10
2018-09-02T17:58:18.473Z,25.00
2018-09-02T18:00:48.573Z,25.00
2018-09-02T18:03:15.657Z,25.00
2018-09-02T18:05:42.738Z,25.00
2018-09-02T18:08:09.888Z,24.90
2018-09-02T18:10:37.382Z,24.90
2018-09-02T18:13:04.497Z,24.90
2018-09-02T18:15:31.577Z,24.80
2018-09-02T18:17:58.650Z,24.80
2018-09-02T18:20:25.730Z,24.80
2018-09-02T18:22:52.821Z,24.70
2018-09-02T18:25:19.916Z,24.70
2018-09-02T18:27:49.937Z,24.70
2018-09-02T18:30:17.030Z,24.60
2018-09-02T18:32:44.114Z,24.60
2018-09-02T18:35:11.213Z,24.60
2018-09-02T18:37:38.691Z,24.60
2018-09-02T18:40:05.900Z,24.50
2018-09-02T18:42:32.977Z,24.50
2018-09-02T18:45:02.077Z,24.50
2018-09-02T18:47:29.172Z,24.50
2018-09-02T18:49:56.355Z,24.50
2018-09-02T18:52:23.484Z,24.50
2018-09-02T18:54:50.564Z,24.50
2018-09-02T18:57:17.670Z,24.60
2018-09-02T18:59:44.794Z,24.60
2018-09-02T19:02:11.918Z,24.70
2018-09-02T19:04:39.014Z,24.70
2018-09-02T19:07:07.057Z,24.70
2018-09-02T19:09:34.305Z,24.80
2018-09-02T19:12:01.389Z,24.90
2018-09-02T19:14:28.477Z,24.90
2018-09-02T19:16:55.559Z,25.00
2018-09-02T19:19:22.661Z,25.10
2018-09-02T19:21:49.745Z,25.20
2018-09-02T19:30:28.524Z,25.40
2018-09-02T19:32:56.002Z,25.40
2018-09-02T19:36:51.471Z,25.40
2018-09-02T19:39:19.854Z,25.50
2018-09-02T19:41:48.602Z,25.50
2018-09-02T19:44:16.833Z,25.60
2018-09-02T19:46:45.513Z,25.50
2018-09-02T19:49:15.272Z,25.50
2018-09-02T19:51:42.952Z,25.50
2018-09-02T19:54:10.676Z,25.40
2018-09-02T19:56:38.247Z,25.40
2018-09-02T19:59:06.006Z,25.30
2018-09-02T20:01:33.716Z,25.20
2018-09-02T20:04:01.369Z,25.10
2018-09-02T20:06:29.081Z,25.10
2018-09-02T20:08:56.585Z,25.00
2018-09-02T20:11:24.760Z,25.00
2018-09-02T20:13:52.372Z,24.90
2018-09-02T20:16:19.992Z,24.90
2018-09-02T20:18:47.599Z,24.80
2018-09-02T20:21:15.274Z,24.80
2018-09-02T20:23:43.775Z,24.70
2018-09-02T20:26:11.342Z,24.70
2018-09-02T20:28:38.740Z,24.60
2018-09-02T20:31:06.254Z,24.60
2018-09-02T20:33:33.608Z,24.60
2018-09-02T20:36:01.162Z,24.50
2018-09-02T20:38:28.570Z,24.50
2018-09-02T20:40:56.525Z,24.40
2018-09-02T20:43:24.032Z,24.40
2018-09-02T20:45:51.620Z,24.40
2018-09-02T20:48:19.122Z,24.30
2018-09-02T20:50:46.591Z,24.30
2018-09-02T20:53:14.062Z,24.30
2018-09-02T20:55:41.590Z,24.30
2018-09-02T20:58:09.082Z,24.20
2018-09-02T21:00:36.520Z,24.20
2018-09-02T21:03:04.059Z,24.20
2018-09-02T21:05:31.468Z,24.20
2018-09-02T21:07:58.939Z,24.10
2018-09-02T21:10:26.450Z,24.10
2018-09-02T21:12:53.850Z,24.10
2018-09-02T21:15:21.343Z,24.00
2018-09-02T21:17:48.897Z,24.00
2018-09-02T21:20:16.406Z,24.00
2018-09-02T21:22:43.930Z,24.00
2018-09-02T21:25:11.522Z,23.90
2018-09-02T21:27:38.993Z,23.90
2018-09-02T21:30:06.432Z,23.90
2018-09-02T21:32:34.045Z,23.80
2018-09-02T21:35:01.524Z,23.80
2018-09-02T21:37:29.059Z,23.80
2018-09-02T21:39:56.408Z,23.70
2018-09-02T21:42:23.796Z,23.70
2018-09-02T21:44:53.182Z,23.60
2018-09-02T21:47:20.747Z,23.60
2018-09-02T21:49:48.155Z,23.60
2018-09-02T21:52:15.615Z,23.60
2018-09-02T21:54:43.535Z,23.60
2018-09-02T21:57:11.030Z,23.60
2018-09-02T21:59:38.809Z,23.60
2018-09-02T22:02:06.448Z,23.60
2018-09-02T22:04:33.978Z,23.50
2018-09-02T22:07:02.922Z,23.50
2018-09-02T22:09:31.967Z,23.50
2018-09-02T22:12:00.177Z,23.50
2018-09-02T22:14:29.031Z,23.50
2018-09-02T22:16:58.246Z,23.50
2018-09-02T22:19:26.343Z,23.50
2018-09-02T22:21:54.045Z,23.50
2018-09-02T22:24:21.988Z,23.50
2018-09-02T22:26:51.212Z,23.50
2018-09-02T22:29:19.096Z,23.50
2018-09-02T22:31:46.749Z,23.40
2018-09-02T22:34:15.117Z,23.40
2018-09-02T22:36:42.800Z,23.40
2018-09-02T22:39:11.365Z,23.40
2018-09-02T22:41:39.192Z,23.40
2018-09-02T22:44:06.826Z,23.40
2018-09-02T22:46:34.346Z,23.40
2018-09-02T22:49:06.261Z,23.40
2018-09-02T22:51:33.877Z,23.30
2018-09-02T22:54:01.602Z,23.30
2018-09-02T22:56:29.300Z,23.30
2018-09-02T22:58:56.833Z,23.30
2018-09-02T23:01:24.540Z,23.30
2018-09-02T23:03:52.842Z,23.30
2018-09-02T23:06:20.768Z,23.20
2018-09-02T23:08:49.258Z,23.20
2018-09-02T23:11:16.845Z,23.20
2018-09-02T23:13:44.254Z,23.20
2018-09-02T23:16:12.029Z,23.10
2018-09-02T23:18:40.633Z,23.10
2018-09-02T23:21:08.176Z,23.10
2018-09-02T23:23:35.777Z,23.10
2018-09-02T23:26:03.511Z,23.10
2018-09-02T23:28:30.949Z,23.10
2018-09-02T23:30:59.320Z,23.10
2018-09-02T23:33:27.828Z,23.10
2018-09-02T23:35:56.384Z,23.10
2018-09-02T23:38:25.640Z,23.00
2018-09-02T23:40:53.717Z,23.00
2018-09-02T23:43:21.324Z,23.00
2018-09-02T23:45:49.630Z,22.90
2018-09-02T23:48:18.179Z,22.90
2018-09-02T23:50:45.731Z,22.90
2018-09-02T23:53:14.023Z,22.90
2018-09-02T23:55:41.639Z,22.80
2018-09-02T23:58:10.191Z,22.90
